sensor_id;sensor_type;location;lat;lon;timestamp;P1;durP1;ratioP1;P2;durP2;ratioP2
77821;SDS011;67012;53.712;10.728;2023-05-10T05:27:07;6.60;;;3.53;;
77821;SDS011;67012;53.712;10.728;2023-05-10T05:29:33;4.13;;;3.63;;
77821;SDS011;67012;53.712;10.728;2023-05-10T05:31:58;8.00;;;3.80;;
77821;SDS011;67012;53.712;10.728;2023-05-10T05:34:23;5.07;;;3.53;;
77821;SDS011;67012;53.712;10.728;2023-05-10T05:36:49;3.85;;;3.20;;
77821;SDS011;67012;53.712;10.728;2023-05-10T05:39:14;4.25;;;3.47;;
77821;SDS011;67012;53.712;10.728;2023-05-10T05:41:39;3.90;;;3.17;;
77821;SDS011;67012;53.712;10.728;2023-05-10T05:44:05;4.40;;;3.87;;
77821;SDS011;67012;53.712;10.728;2023-05-10T05:46:30;4.27;;;3.83;;
77821;SDS011;67012;53.712;10.728;2023-05-10T05:48:55;4.45;;;3.50;;
77821;SDS011;67012;53.712;10.728;2023-05-10T05:51:20;4.53;;;3.50;;
77821;SDS011;67012;53.712;10.728;2023-05-10T05:53:46;4.93;;;3.43;;
77821;SDS011;67012;53.712;10.728;2023-05-10T05:56:11;4.17;;;3.40;;
77821;SDS011;67012;53.712;10.728;2023-05-10T05:58:36;5.93;;;3.53;;
77821;SDS011;67012;53.712;10.728;2023-05-10T06:01:01;5.33;;;3.30;;
77821;SDS011;67012;53.712;10.728;2023-05-10T06:03:26;4.93;;;3.40;;
77821;SDS011;67012;53.712;10.728;2023-05-10T06:05:52;4.83;;;3.70;;
77821;SDS011;67012;53.712;10.728;2023-05-10T06:08:17;4.20;;;3.43;;
77821;SDS011;67012;53.712;10.728;2023-05-10T06:10:42;7.33;;;3.97;;
77821;SDS011;67012;53.712;10.728;2023-05-10T06:13:07;9.47;;;4.00;;
77821;SDS011;67012;53.712;10.728;2023-05-10T06:15:32;4.73;;;3.47;;
77821;SDS011;67012;53.712;10.728;2023-05-10T06:17:58;4.93;;;4.03;;
77821;SDS011;67012;53.712;10.728;2023-05-10T06:20:23;4.23;;;3.10;;
77821;SDS011;67012;53.712;10.728;2023-05-10T06:22:48;4.97;;;3.80;;
77821;SDS011;67012;53.712;10.728;2023-05-10T06:25:14;4.70;;;3.93;;
77821;SDS011;67012;53.712;10.728;2023-05-10T06:27:39;5.45;;;3.38;;
77821;SDS011;67012;53.712;10.728;2023-05-10T06:30:05;4.83;;;4.13;;
77821;SDS011;67012;53.712;10.728;2023-05-10T06:32:30;4.07;;;3.67;;
77821;SDS011;67012;53.712;10.728;2023-05-10T06:34:55;4.00;;;3.47;;
77821;SDS011;67012;53.712;10.728;2023-05-10T06:37:20;3.90;;;3.47;;
77821;SDS011;67012;53.712;10.728;2023-05-10T06:39:46;4.07;;;3.57;;
77821;SDS011;67012;53.712;10.728;2023-05-10T06:42:11;4.93;;;4.17;;
77821;SDS011;67012;53.712;10.728;2023-05-10T06:44:36;3.77;;;3.13;;
77821;SDS011;67012;53.712;10.728;2023-05-10T06:47:01;3.92;;;3.35;;
77821;SDS011;67012;53.712;10.728;2023-05-10T06:49:27;4.53;;;3.80;;
77821;SDS011;67012;53.712;10.728;2023-05-10T06:51:52;5.03;;;3.77;;
77821;SDS011;67012;53.712;10.728;2023-05-10T06:54:17;3.83;;;3.40;;
77821;SDS011;67012;53.712;10.728;2023-05-10T06:56:42;6.10;;;3.50;;
77821;SDS011;67012;53.712;10.728;2023-05-10T06:59:07;3.77;;;3.47;;
77821;SDS011;67012;53.712;10.728;2023-05-10T07:01:33;5.37;;;3.67;;
77821;SDS011;67012;53.712;10.728;2023-05-10T07:03:58;4.50;;;3.40;;
77821;SDS011;67012;53.712;10.728;2023-05-10T07:06:23;4.43;;;3.83;;
77821;SDS011;67012;53.712;10.728;2023-05-10T07:08:48;4.10;;;3.10;;
77821;SDS011;67012;53.712;10.728;2023-05-10T07:11:13;6.03;;;3.57;;
77821;SDS011;67012;53.712;10.728;2023-05-10T07:13:38;3.50;;;3.17;;
77821;SDS011;67012;53.712;10.728;2023-05-10T07:16:06;5.03;;;3.35;;
77821;SDS011;67012;53.712;10.728;2023-05-10T07:18:32;4.20;;;3.45;;
77821;SDS011;67012;53.712;10.728;2023-05-10T07:20:57;5.53;;;3.33;;
77821;SDS011;67012;53.712;10.728;2023-05-10T07:23:22;5.27;;;3.40;;
77821;SDS011;67012;53.712;10.728;2023-05-10T07:25:48;4.20;;;3.10;;
77821;SDS011;67012;53.712;10.728;2023-05-10T07:28:14;3.80;;;3.40;;
77821;SDS011;67012;53.712;10.728;2023-05-10T07:30:39;4.65;;;3.22;;
77821;SDS011;67012;53.712;10.728;2023-05-10T07:33:04;6.18;;;3.13;;
77821;SDS011;67012;53.712;10.728;2023-05-10T07:35:30;4.57;;;3.30;;
77821;SDS011;67012;53.712;10.728;2023-05-10T07:37:55;5.67;;;3.70;;
77821;SDS011;67012;53.712;10.728;2023-05-10T07:40:20;4.60;;;3.70;;
77821;SDS011;67012;53.712;10.728;2023-05-10T07:42:45;4.10;;;3.70;;
77821;SDS011;67012;53.712;10.728;2023-05-10T07:45:10;3.93;;;3.53;;
77821;SDS011;67012;53.712;10.728;2023-05-10T07:47:36;4.10;;;3.40;;
77821;SDS011;67012;53.712;10.728;2023-05-10T07:50:01;5.00;;;3.30;;
77821;SDS011;67012;53.712;10.728;2023-05-10T07:52:26;5.00;;;3.80;;
77821;SDS011;67012;53.712;10.728;2023-05-10T07:54:51;4.50;;;3.27;;
77821;SDS011;67012;53.712;10.728;2023-05-10T07:57:17;4.60;;;3.80;;
77821;SDS011;67012;53.712;10.728;2023-05-10T07:59:42;5.40;;;3.60;;
77821;SDS011;67012;53.712;10.728;2023-05-10T08:02:08;4.00;;;3.60;;
77821;SDS011;67012;53.712;10.728;2023-05-10T08:04:33;7.07;;;3.73;;
77821;SDS011;67012;53.712;10.728;2023-05-10T08:06:58;3.67;;;3.37;;
77821;SDS011;67012;53.712;10.728;2023-05-10T08:09:24;5.07;;;4.00;;
77821;SDS011;67012;53.712;10.728;2023-05-10T08:11:49;5.15;;;3.42;;
77821;SDS011;67012;53.712;10.728;2023-05-10T08:14:15;6.65;;;3.83;;
77821;SDS011;67012;53.712;10.728;2023-05-10T08:16:40;4.17;;;3.60;;
77821;SDS011;67012;53.712;10.728;2023-05-10T08:19:06;5.78;;;3.95;;
77821;SDS011;67012;53.712;10.728;2023-05-10T08:21:31;4.00;;;3.63;;
77821;SDS011;67012;53.712;10.728;2023-05-10T08:23:56;4.70;;;3.83;;
77821;SDS011;67012;53.712;10.728;2023-05-10T08:26:22;4.05;;;3.70;;
77821;SDS011;67012;53.712;10.728;2023-05-10T08:28:47;4.13;;;3.73;;
77821;SDS011;67012;53.712;10.728;2023-05-10T08:31:13;3.90;;;3.50;;
77821;SDS011;67012;53.712;10.728;2023-05-10T08:33:38;5.17;;;3.70;;
77821;SDS011;67012;53.712;10.728;2023-05-10T08:36:03;4.00;;;3.60;;
77821;SDS011;67012;53.712;10.728;2023-05-10T08:38:28;5.43;;;3.07;;
77821;SDS011;67012;53.712;10.728;2023-05-10T08:40:54;4.93;;;3.77;;
77821;SDS011;67012;53.712;10.728;2023-05-10T08:43:21;5.63;;;3.28;;
77821;SDS011;67012;53.712;10.728;2023-05-10T08:45:49;5.78;;;3.70;;
77821;SDS011;67012;53.712;10.728;2023-05-10T08:48:15;4.82;;;4.22;;
77821;SDS011;67012;53.712;10.728;2023-05-10T08:50:42;4.60;;;3.83;;
77821;SDS011;67012;53.712;10.728;2023-05-10T08:53:09;5.35;;;3.58;;
77821;SDS011;67012;53.712;10.728;2023-05-10T08:55:34;5.85;;;4.00;;
77821;SDS011;67012;53.712;10.728;2023-05-10T08:58:02;3.75;;;3.28;;
77821;SDS011;67012;53.712;10.728;2023-05-10T09:00:28;5.88;;;3.72;;
77821;SDS011;67012;53.712;10.728;2023-05-10T09:02:53;5.43;;;4.00;;
77821;SDS011;67012;53.712;10.728;2023-05-10T09:05:19;5.43;;;4.37;;
77821;SDS011;67012;53.712;10.728;2023-05-10T09:07:44;5.90;;;3.73;;
77821;SDS011;67012;53.712;10.728;2023-05-10T09:10:10;4.13;;;3.80;;
77821;SDS011;67012;53.712;10.728;2023-05-10T09:12:35;4.30;;;3.40;;
77821;SDS011;67012;53.712;10.728;2023-05-10T09:15:01;4.00;;;3.35;;
77821;SDS011;67012;53.712;10.728;2023-05-10T09:17:26;5.80;;;3.58;;
77821;SDS011;67012;53.712;10.728;2023-05-10T09:19:58;4.90;;;3.80;;
77821;SDS011;67012;53.712;10.728;2023-05-10T09:22:24;3.95;;;3.17;;
77821;SDS011;67012;53.712;10.728;2023-05-10T09:25:02;5.03;;;3.50;;
77821;SDS011;67012;53.712;10.728;2023-05-10T09:27:28;3.97;;;3.42;;
77821;SDS011;67012;53.712;10.728;2023-05-10T09:29:53;4.97;;;3.57;;
77821;SDS011;67012;53.712;10.728;2023-05-10T09:32:20;6.03;;;3.70;;
77821;SDS011;67012;53.712;10.728;2023-05-10T09:34:45;3.87;;;3.23;;
77821;SDS011;67012;53.712;10.728;2023-05-10T09:37:11;4.28;;;3.53;;
77821;SDS011;67012;53.712;10.728;2023-05-10T09:39:37;4.07;;;3.65;;
77821;SDS011;67012;53.712;10.728;2023-05-10T09:42:08;4.10;;;3.70;;
77821;SDS011;67012;53.712;10.728;2023-05-10T09:44:34;5.45;;;4.00;;
77821;SDS011;67012;53.712;10.728;2023-05-10T09:47:00;5.25;;;4.00;;
77821;SDS011;67012;53.712;10.728;2023-05-10T09:49:25;4.45;;;3.80;;
77821;SDS011;67012;53.712;10.728;2023-05-10T09:52:00;4.50;;;3.93;;
77821;SDS011;67012;53.712;10.728;2023-05-10T09:54:26;4.40;;;4.00;;
77821;SDS011;67012;53.712;10.728;2023-05-10T09:56:51;4.97;;;4.20;;
77821;SDS011;67012;53.712;10.728;2023-05-10T09:59:17;5.20;;;3.90;;
77821;SDS011;67012;53.712;10.728;2023-05-10T10:01:43;4.95;;;4.05;;
77821;SDS011;67012;53.712;10.728;2023-05-10T10:04:14;4.13;;;3.72;;
77821;SDS011;67012;53.712;10.728;2023-05-10T10:06:39;4.57;;;4.03;;
77821;SDS011;67012;53.712;10.728;2023-05-10T10:09:07;6.38;;;3.63;;
77821;SDS011;67012;53.712;10.728;2023-05-10T10:11:36;4.40;;;4.00;;
77821;SDS011;67012;53.712;10.728;2023-05-10T10:14:02;5.05;;;4.10;;
77821;SDS011;67012;53.712;10.728;2023-05-10T10:16:28;3.70;;;3.17;;
77821;SDS011;67012;53.712;10.728;2023-05-10T10:18:54;5.40;;;4.03;;
77821;SDS011;67012;53.712;10.728;2023-05-10T10:21:19;4.33;;;3.93;;
77821;SDS011;67012;53.712;10.728;2023-05-10T10:23:45;10.60;;;4.20;;
77821;SDS011;67012;53.712;10.728;2023-05-10T10:26:10;4.80;;;3.85;;
77821;SDS011;67012;53.712;10.728;2023-05-10T10:28:53;4.53;;;3.90;;
77821;SDS011;67012;53.712;10.728;2023-05-10T10:33:51;4.93;;;3.90;;
77821;SDS011;67012;53.712;10.728;2023-05-10T10:36:20;4.50;;;4.10;;
77821;SDS011;67012;53.712;10.728;2023-05-10T10:41:11;4.28;;;3.88;;
77821;SDS011;67012;53.712;10.728;2023-05-10T10:44:20;4.65;;;3.75;;
77821;SDS011;67012;53.712;10.728;2023-05-10T10:46:50;5.55;;;3.83;;
77821;SDS011;67012;53.712;10.728;2023-05-10T10:49:22;5.30;;;3.97;;
77821;SDS011;67012;53.712;10.728;2023-05-10T10:54:32;5.75;;;3.63;;
77821;SDS011;67012;53.712;10.728;2023-05-10T10:57:12;4.10;;;3.60;;
77821;SDS011;67012;53.712;10.728;2023-05-10T10:59:41;4.10;;;3.70;;
77821;SDS011;67012;53.712;10.728;2023-05-10T11:02:08;4.25;;;3.80;;
77821;SDS011;67012;53.712;10.728;2023-05-10T11:04:43;5.97;;;3.90;;
77821;SDS011;67012;53.712;10.728;2023-05-10T11:07:17;5.70;;;3.67;;
77821;SDS011;67012;53.712;10.728;2023-05-10T11:09:43;5.57;;;4.05;;
77821;SDS011;67012;53.712;10.728;2023-05-10T11:12:08;7.20;;;4.10;;
77821;SDS011;67012;53.712;10.728;2023-05-10T11:14:33;4.15;;;3.75;;
77821;SDS011;67012;53.712;10.728;2023-05-10T11:16:59;5.75;;;4.10;;
77821;SDS011;67012;53.712;10.728;2023-05-10T11:19:27;6.13;;;4.32;;
77821;SDS011;67012;53.712;10.728;2023-05-10T11:24:30;4.43;;;4.03;;
77821;SDS011;67012;53.712;10.728;2023-05-10T11:26:55;4.17;;;3.77;;
77821;SDS011;67012;53.712;10.728;2023-05-10T11:29:21;3.95;;;3.53;;
77821;SDS011;67012;53.712;10.728;2023-05-10T11:31:46;4.97;;;3.87;;
77821;SDS011;67012;53.712;10.728;2023-05-10T11:34:22;4.40;;;3.58;;
77821;SDS011;67012;53.712;10.728;2023-05-10T11:36:50;5.15;;;4.18;;
77821;SDS011;67012;53.712;10.728;2023-05-10T11:39:15;4.35;;;3.40;;
77821;SDS011;67012;53.712;10.728;2023-05-10T11:41:41;5.13;;;3.87;;
77821;SDS011;67012;53.712;10.728;2023-05-10T11:44:06;4.83;;;3.77;;
77821;SDS011;67012;53.712;10.728;2023-05-10T11:46:33;7.85;;;3.88;;
77821;SDS011;67012;53.712;10.728;2023-05-10T11:48:59;4.28;;;3.90;;
77821;SDS011;67012;53.712;10.728;2023-05-10T11:51:29;4.25;;;3.78;;
77821;SDS011;67012;53.712;10.728;2023-05-10T11:53:58;4.32;;;3.58;;
77821;SDS011;67012;53.712;10.728;2023-05-10T11:56:23;5.43;;;3.92;;
77821;SDS011;67012;53.712;10.728;2023-05-10T11:58:55;4.18;;;3.78;;
77821;SDS011;67012;53.712;10.728;2023-05-10T12:01:24;5.93;;;4.18;;
77821;SDS011;67012;53.712;10.728;2023-05-10T12:03:50;4.38;;;3.97;;
77821;SDS011;67012;53.712;10.728;2023-05-10T12:06:16;6.75;;;4.10;;
77821;SDS011;67012;53.712;10.728;2023-05-10T12:08:45;7.55;;;3.90;;
77821;SDS011;67012;53.712;10.728;2023-05-10T12:11:17;5.35;;;4.03;;
77821;SDS011;67012;53.712;10.728;2023-05-10T12:13:43;7.22;;;4.07;;
77821;SDS011;67012;53.712;10.728;2023-05-10T12:16:18;5.15;;;4.18;;
77821;SDS011;67012;53.712;10.728;2023-05-10T12:18:44;4.63;;;3.92;;
77821;SDS011;67012;53.712;10.728;2023-05-10T12:21:10;4.93;;;4.43;;
77821;SDS011;67012;53.712;10.728;2023-05-10T12:23:36;7.22;;;4.95;;
77821;SDS011;67012;53.712;10.728;2023-05-10T12:26:02;6.23;;;4.43;;
77821;SDS011;67012;53.712;10.728;2023-05-10T12:28:29;7.22;;;4.88;;
77821;SDS011;67012;53.712;10.728;2023-05-10T12:30:54;6.53;;;4.40;;
77821;SDS011;67012;53.712;10.728;2023-05-10T12:33:20;5.90;;;4.40;;
77821;SDS011;67012;53.712;10.728;2023-05-10T12:38:32;8.53;;;5.60;;
77821;SDS011;67012;53.712;10.728;2023-05-10T12:40:59;7.95;;;5.32;;
77821;SDS011;67012;53.712;10.728;2023-05-10T12:43:25;11.13;;;6.47;;
77821;SDS011;67012;53.712;10.728;2023-05-10T12:45:50;10.50;;;6.60;;
77821;SDS011;67012;53.712;10.728;2023-05-10T12:48:15;9.50;;;6.60;;
77821;SDS011;67012;53.712;10.728;2023-05-10T12:50:40;7.87;;;6.27;;
77821;SDS011;67012;53.712;10.728;2023-05-10T12:53:05;7.43;;;6.40;;
77821;SDS011;67012;53.712;10.728;2023-05-10T12:55:31;8.77;;;6.43;;
77821;SDS011;67012;53.712;10.728;2023-05-10T12:57:56;11.50;;;6.23;;
77821;SDS011;67012;53.712;10.728;2023-05-10T13:00:21;7.68;;;6.63;;
77821;SDS011;67012;53.712;10.728;2023-05-10T13:02:46;7.67;;;6.00;;
77821;SDS011;67012;53.712;10.728;2023-05-10T13:05:11;8.60;;;6.37;;
77821;SDS011;67012;53.712;10.728;2023-05-10T13:07:38;9.50;;;6.95;;
77821;SDS011;67012;53.712;10.728;2023-05-10T13:10:03;8.03;;;6.90;;
77821;SDS011;67012;53.712;10.728;2023-05-10T13:12:28;8.32;;;7.32;;
77821;SDS011;67012;53.712;10.728;2023-05-10T13:14:54;10.98;;;7.70;;
77821;SDS011;67012;53.712;10.728;2023-05-10T13:17:19;10.37;;;8.03;;
77821;SDS011;67012;53.712;10.728;2023-05-10T13:19:44;9.55;;;7.45;;
77821;SDS011;67012;53.712;10.728;2023-05-10T13:22:10;9.37;;;7.20;;
77821;SDS011;67012;53.712;10.728;2023-05-10T13:24:35;9.53;;;7.97;;
77821;SDS011;67012;53.712;10.728;2023-05-10T13:27:00;9.57;;;8.17;;
77821;SDS011;67012;53.712;10.728;2023-05-10T13:29:25;9.63;;;7.53;;
77821;SDS011;67012;53.712;10.728;2023-05-10T13:31:50;9.57;;;7.37;;
77821;SDS011;67012;53.712;10.728;2023-05-10T13:34:16;8.47;;;7.37;;
77821;SDS011;67012;53.712;10.728;2023-05-10T13:36:41;8.40;;;6.68;;
77821;SDS011;67012;53.712;10.728;2023-05-10T13:39:07;11.15;;;8.10;;
77821;SDS011;67012;53.712;10.728;2023-05-10T13:41:32;11.33;;;7.27;;
77821;SDS011;67012;53.712;10.728;2023-05-10T13:43:57;13.07;;;7.60;;
77821;SDS011;67012;53.712;10.728;2023-05-10T13:46:22;9.83;;;6.10;;
77821;SDS011;67012;53.712;10.728;2023-05-10T13:48:48;9.02;;;6.85;;
77821;SDS011;67012;53.712;10.728;2023-05-10T13:51:13;6.50;;;5.90;;
77821;SDS011;67012;53.712;10.728;2023-05-10T13:53:38;7.82;;;6.55;;
77821;SDS011;67012;53.712;10.728;2023-05-10T13:56:03;7.63;;;5.60;;
77821;SDS011;67012;53.712;10.728;2023-05-10T13:58:29;8.57;;;6.22;;
77821;SDS011;67012;53.712;10.728;2023-05-10T14:00:55;6.95;;;5.70;;
77821;SDS011;67012;53.712;10.728;2023-05-10T14:03:20;6.85;;;5.85;;
77821;SDS011;67012;53.712;10.728;2023-05-10T14:05:46;8.33;;;6.80;;
77821;SDS011;67012;53.712;10.728;2023-05-10T14:08:12;8.20;;;6.40;;
77821;SDS011;67012;53.712;10.728;2023-05-10T14:10:38;6.88;;;5.85;;
77821;SDS011;67012;53.712;10.728;2023-05-10T14:13:03;6.93;;;6.13;;
77821;SDS011;67012;53.712;10.728;2023-05-10T14:15:28;7.20;;;5.83;;
77821;SDS011;67012;53.712;10.728;2023-05-10T14:17:53;8.53;;;6.17;;
77821;SDS011;67012;53.712;10.728;2023-05-10T14:20:18;6.83;;;5.90;;
77821;SDS011;67012;53.712;10.728;2023-05-10T14:22:44;6.60;;;5.80;;
77821;SDS011;67012;53.712;10.728;2023-05-10T14:25:09;7.03;;;6.33;;
77821;SDS011;67012;53.712;10.728;2023-05-10T14:27:34;10.93;;;6.93;;
77821;SDS011;67012;53.712;10.728;2023-05-10T14:29:59;7.67;;;5.73;;
77821;SDS011;67012;53.712;10.728;2023-05-10T14:32:24;6.70;;;6.10;;
77821;SDS011;67012;53.712;10.728;2023-05-10T14:34:51;6.82;;;6.07;;
77821;SDS011;67012;53.712;10.728;2023-05-10T14:37:17;8.13;;;6.00;;
77821;SDS011;67012;53.712;10.728;2023-05-10T14:39:42;8.50;;;7.07;;
77821;SDS011;67012;53.712;10.728;2023-05-10T14:42:07;7.88;;;6.40;;
77821;SDS011;67012;53.712;10.728;2023-05-10T14:44:33;8.10;;;5.88;;
77821;SDS011;67012;53.712;10.728;2023-05-10T14:46:58;6.77;;;6.07;;
77821;SDS011;67012;53.712;10.728;2023-05-10T14:49:23;8.60;;;6.10;;
77821;SDS011;67012;53.712;10.728;2023-05-10T14:51:50;6.85;;;5.85;;
77821;SDS011;67012;53.712;10.728;2023-05-10T14:54:15;8.80;;;6.37;;
77821;SDS011;67012;53.712;10.728;2023-05-10T14:56:41;7.93;;;6.57;;
77821;SDS011;67012;53.712;10.728;2023-05-10T14:59:06;7.70;;;6.43;;
77821;SDS011;67012;53.712;10.728;2023-05-10T15:01:32;7.65;;;6.45;;
77821;SDS011;67012;53.712;10.728;2023-05-10T15:03:57;6.88;;;6.03;;
77821;SDS011;67012;53.712;10.728;2023-05-10T15:06:23;6.68;;;5.80;;
77821;SDS011;67012;53.712;10.728;2023-05-10T15:08:50;8.15;;;5.75;;
77821;SDS011;67012;53.712;10.728;2023-05-10T15:11:15;7.50;;;5.77;;
77821;SDS011;67012;53.712;10.728;2023-05-10T15:13:40;6.43;;;5.53;;
77821;SDS011;67012;53.712;10.728;2023-05-10T15:16:05;6.37;;;5.57;;
77821;SDS011;67012;53.712;10.728;2023-05-10T15:18:31;6.87;;;5.27;;
77821;SDS011;67012;53.712;10.728;2023-05-10T15:20:56;7.20;;;5.73;;
77821;SDS011;67012;53.712;10.728;2023-05-10T15:23:22;7.55;;;5.50;;
77821;SDS011;67012;53.712;10.728;2023-05-10T15:25:48;8.03;;;6.00;;
77821;SDS011;67012;53.712;10.728;2023-05-10T15:28:14;7.28;;;5.50;;
77821;SDS011;67012;53.712;10.728;2023-05-10T15:30:39;6.07;;;5.07;;
77821;SDS011;67012;53.712;10.728;2023-05-10T15:33:05;6.17;;;5.03;;
77821;SDS011;67012;53.712;10.728;2023-05-10T15:35:30;5.77;;;5.17;;
77821;SDS011;67012;53.712;10.728;2023-05-10T15:37:55;8.10;;;5.53;;
77821;SDS011;67012;53.712;10.728;2023-05-10T15:40:20;7.63;;;5.80;;
77821;SDS011;67012;53.712;10.728;2023-05-10T15:42:45;6.40;;;5.23;;
77821;SDS011;67012;53.712;10.728;2023-05-10T15:45:11;6.03;;;4.87;;
77821;SDS011;67012;53.712;10.728;2023-05-10T15:47:36;5.18;;;4.63;;
77821;SDS011;67012;53.712;10.728;2023-05-10T15:50:05;5.35;;;4.85;;
77821;SDS011;67012;53.712;10.728;2023-05-10T15:52:30;5.25;;;4.75;;
77821;SDS011;67012;53.712;10.728;2023-05-10T15:54:55;4.33;;;3.93;;
77821;SDS011;67012;53.712;10.728;2023-05-10T15:57:21;5.95;;;4.35;;
77821;SDS011;67012;53.712;10.728;2023-05-10T15:59:46;6.27;;;4.87;;
77821;SDS011;67012;53.712;10.728;2023-05-10T16:02:11;4.10;;;3.70;;
77821;SDS011;67012;53.712;10.728;2023-05-10T16:04:36;4.40;;;4.00;;
77821;SDS011;67012;53.712;10.728;2023-05-10T16:07:02;4.47;;;3.93;;
77821;SDS011;67012;53.712;10.728;2023-05-10T16:09:27;7.50;;;6.37;;
77821;SDS011;67012;53.712;10.728;2023-05-10T16:11:52;7.23;;;5.67;;
77821;SDS011;67012;53.712;10.728;2023-05-10T16:14:17;58.00;;;25.17;;
77821;SDS011;67012;53.712;10.728;2023-05-10T16:16:44;21.55;;;10.70;;
77821;SDS011;67012;53.712;10.728;2023-05-10T16:19:09;6.50;;;3.97;;
77821;SDS011;67012;53.712;10.728;2023-05-10T16:21:35;6.60;;;4.23;;
77821;SDS011;67012;53.712;10.728;2023-05-10T16:24:01;4.85;;;4.35;;
77821;SDS011;67012;53.712;10.728;2023-05-10T16:26:26;4.03;;;3.45;;
77821;SDS011;67012;53.712;10.728;2023-05-10T16:28:52;3.80;;;3.40;;
77821;SDS011;67012;53.712;10.728;2023-05-10T16:31:17;14.53;;;8.23;;
77821;SDS011;67012;53.712;10.728;2023-05-10T16:33:43;5.35;;;3.50;;
77821;SDS011;67012;53.712;10.728;2023-05-10T16:36:09;3.77;;;3.30;;
77821;SDS011;67012;53.712;10.728;2023-05-10T16:38:34;3.22;;;2.50;;
77821;SDS011;67012;53.712;10.728;2023-05-10T16:41:02;3.50;;;3.20;;
77821;SDS011;67012;53.712;10.728;2023-05-10T16:43:28;4.55;;;3.08;;
77821;SDS011;67012;53.712;10.728;2023-05-10T16:45:53;4.22;;;3.40;;
77821;SDS011;67012;53.712;10.728;2023-05-10T16:48:18;2.87;;;2.67;;
77821;SDS011;67012;53.712;10.728;2023-05-10T16:50:43;3.30;;;3.00;;
77821;SDS011;67012;53.712;10.728;2023-05-10T16:53:08;3.30;;;3.00;;
77821;SDS011;67012;53.712;10.728;2023-05-10T16:55:35;3.95;;;2.88;;
77821;SDS011;67012;53.712;10.728;2023-05-10T16:58:00;3.90;;;2.80;;
77821;SDS011;67012;53.712;10.728;2023-05-10T17:00:26;2.83;;;2.63;;
77821;SDS011;67012;53.712;10.728;2023-05-10T17:02:52;3.27;;;2.93;;
77821;SDS011;67012;53.712;10.728;2023-05-10T17:05:18;3.25;;;2.75;;
77821;SDS011;67012;53.712;10.728;2023-05-10T17:07:43;3.67;;;2.60;;
77821;SDS011;67012;53.712;10.728;2023-05-10T17:10:09;3.43;;;2.13;;
77821;SDS011;67012;53.712;10.728;2023-05-10T17:12:34;2.72;;;2.50;;
77821;SDS011;67012;53.712;10.728;2023-05-10T17:14:59;2.77;;;2.57;;
77821;SDS011;67012;53.712;10.728;2023-05-10T17:17:24;3.07;;;2.80;;
77821;SDS011;67012;53.712;10.728;2023-05-10T17:19:50;2.05;;;1.88;;
77821;SDS011;67012;53.712;10.728;2023-05-10T17:22:15;4.17;;;2.60;;
77821;SDS011;67012;53.712;10.728;2023-05-10T17:24:40;2.33;;;2.20;;
77821;SDS011;67012;53.712;10.728;2023-05-10T17:27:05;2.60;;;2.40;;
77821;SDS011;67012;53.712;10.728;2023-05-10T17:29:31;2.33;;;1.93;;
77821;SDS011;67012;53.712;10.728;2023-05-10T17:31:56;2.63;;;2.42;;
77821;SDS011;67012;53.712;10.728;2023-05-10T17:34:22;3.05;;;2.38;;
77821;SDS011;67012;53.712;10.728;2023-05-10T17:36:47;2.40;;;2.20;;
77821;SDS011;67012;53.712;10.728;2023-05-10T17:41:40;2.38;;;2.22;;
77821;SDS011;67012;53.712;10.728;2023-05-10T17:44:05;2.37;;;2.17;;
77821;SDS011;67012;53.712;10.728;2023-05-10T17:46:31;2.60;;;2.40;;
77821;SDS011;67012;53.712;10.728;2023-05-10T17:48:56;3.92;;;2.63;;
77821;SDS011;67012;53.712;10.728;2023-05-10T17:51:22;2.92;;;2.47;;
77821;SDS011;67012;53.712;10.728;2023-05-10T17:53:47;3.77;;;2.93;;
77821;SDS011;67012;53.712;10.728;2023-05-10T17:56:12;3.53;;;2.90;;
77821;SDS011;67012;53.712;10.728;2023-05-10T17:58:37;3.77;;;2.43;;
